sensor_id;sensor_type;location;lat;lon;timestamp;temperature;humidity
51853;DHT22;37894;53.172;6.598;2022-08-11T00:00:36;17.00;99.90
51853;DHT22;37894;53.172;6.598;2022-08-11T00:03:07;17.00;99.90
51853;DHT22;37894;53.172;6.598;2022-08-11T00:05:43;17.00;99.90
51853;DHT22;37894;53.172;6.598;2022-08-11T00:08:11;16.90;99.90
51853;DHT22;37894;53.172;6.598;2022-08-11T00:10:52;16.90;99.90
51853;DHT22;37894;53.172;6.598;2022-08-11T00:13:18;16.90;99.90
51853;DHT22;37894;53.172;6.598;2022-08-11T00:15:45;16.80;99.90
51853;DHT22;37894;53.172;6.598;2022-08-11T00:18:12;16.80;99.90
51853;DHT22;37894;53.172;6.598;2022-08-11T00:20:41;16.80;99.90
51853;DHT22;37894;53.172;6.598;2022-08-11T00:23:13;16.70;99.90
51853;DHT22;37894;53.172;6.598;2022-08-11T00:25:48;16.70;99.90
51853;DHT22;37894;53.172;6.598;2022-08-11T00:28:33;16.70;99.90
51853;DHT22;37894;53.172;6.598;2022-08-11T00:31:04;16.70;99.90
51853;DHT22;37894;53.172;6.598;2022-08-11T00:33:40;16.70;99.90
51853;DHT22;37894;53.172;6.598;2022-08-11T00:36:08;16.70;99.90
51853;DHT22;37894;53.172;6.598;2022-08-11T00:38:37;16.60;99.90
51853;DHT22;37894;53.172;6.598;2022-08-11T00:41:07;16.60;99.90
51853;DHT22;37894;53.172;6.598;2022-08-11T00:43:46;16.60;99.90
51853;DHT22;37894;53.172;6.598;2022-08-11T00:46:41;16.60;99.90
51853;DHT22;37894;53.172;6.598;2022-08-11T01:00:10;16.50;99.90
51853;DHT22;37894;53.172;6.598;2022-08-11T01:02:54;16.50;99.90
51853;DHT22;37894;53.172;6.598;2022-08-11T01:05:55;16.50;99.90
51853;DHT22;37894;53.172;6.598;2022-08-11T01:14:19;16.50;99.90
51853;DHT22;37894;53.172;6.598;2022-08-11T01:25:39;16.40;99.90
51853;DHT22;37894;53.172;6.598;2022-08-11T01:45:56;16.30;99.90
51853;DHT22;37894;53.172;6.598;2022-08-11T01:48:40;16.30;99.90
51853;DHT22;37894;53.172;6.598;2022-08-11T01:54:15;16.30;99.90
51853;DHT22;37894;53.172;6.598;2022-08-11T02:00:13;16.20;99.90
51853;DHT22;37894;53.172;6.598;2022-08-11T02:03:06;16.20;99.90
51853;DHT22;37894;53.172;6.598;2022-08-11T02:08:48;16.10;99.90
51853;DHT22;37894;53.172;6.598;2022-08-11T02:11:27;16.10;99.90
51853;DHT22;37894;53.172;6.598;2022-08-11T02:25:41;16.10;99.90
51853;DHT22;37894;53.172;6.598;2022-08-11T02:31:10;16.00;99.90
51853;DHT22;37894;53.172;6.598;2022-08-11T02:34:04;16.00;99.90
51853;DHT22;37894;53.172;6.598;2022-08-11T02:36:51;16.00;99.90
51853;DHT22;37894;53.172;6.598;2022-08-11T02:39:19;16.00;99.90
51853;DHT22;37894;53.172;6.598;2022-08-11T02:42:07;15.90;99.90
51853;DHT22;37894;53.172;6.598;2022-08-11T02:48:12;15.80;99.90
51853;DHT22;37894;53.172;6.598;2022-08-11T02:51:19;15.80;99.90
51853;DHT22;37894;53.172;6.598;2022-08-11T02:57:40;15.70;99.90
51853;DHT22;37894;53.172;6.598;2022-08-11T03:00:10;15.70;99.90
51853;DHT22;37894;53.172;6.598;2022-08-11T03:05:29;15.70;99.90
51853;DHT22;37894;53.172;6.598;2022-08-11T03:11:06;15.70;99.90
51853;DHT22;37894;53.172;6.598;2022-08-11T03:14:26;15.60;99.90
51853;DHT22;37894;53.172;6.598;2022-08-11T03:25:35;15.70;99.90
51853;DHT22;37894;53.172;6.598;2022-08-11T03:33:45;15.90;99.90
51853;DHT22;37894;53.172;6.598;2022-08-11T03:36:54;15.80;99.90
51853;DHT22;37894;53.172;6.598;2022-08-11T03:47:37;15.60;99.90
51853;DHT22;37894;53.172;6.598;2022-08-11T03:53:15;15.60;99.90
51853;DHT22;37894;53.172;6.598;2022-08-11T04:02:08;15.50;99.90
51853;DHT22;37894;53.172;6.598;2022-08-11T04:34:04;15.60;99.90
51853;DHT22;37894;53.172;6.598;2022-08-11T04:51:36;15.60;99.90
51853;DHT22;37894;53.172;6.598;2022-08-11T04:57:50;15.70;99.90
51853;DHT22;37894;53.172;6.598;2022-08-11T05:04:27;15.70;99.90
51853;DHT22;37894;53.172;6.598;2022-08-11T05:13:42;15.80;99.90
51853;DHT22;37894;53.172;6.598;2022-08-11T05:16:32;15.90;99.90
51853;DHT22;37894;53.172;6.598;2022-08-11T05:19:20;16.00;99.90
51853;DHT22;37894;53.172;6.598;2022-08-11T05:22:10;16.10;99.90
51853;DHT22;37894;53.172;6.598;2022-08-11T05:25:09;16.10;99.90
51853;DHT22;37894;53.172;6.598;2022-08-11T05:31:03;16.30;99.90
51853;DHT22;37894;53.172;6.598;2022-08-11T05:33:53;16.40;99.90
51853;DHT22;37894;53.172;6.598;2022-08-11T05:36:46;16.50;99.90
51853;DHT22;37894;53.172;6.598;2022-08-11T05:39:24;16.60;99.90
51853;DHT22;37894;53.172;6.598;2022-08-11T05:42:10;16.70;99.90
51853;DHT22;37894;53.172;6.598;2022-08-11T05:45:00;16.70;99.90
51853;DHT22;37894;53.172;6.598;2022-08-11T05:47:50;17.30;99.90
51853;DHT22;37894;53.172;6.598;2022-08-11T05:50:34;16.90;99.90
51853;DHT22;37894;53.172;6.598;2022-08-11T05:53:20;17.00;99.90
51853;DHT22;37894;53.172;6.598;2022-08-11T05:56:05;17.20;99.90
51853;DHT22;37894;53.172;6.598;2022-08-11T05:58:52;17.20;99.90
51853;DHT22;37894;53.172;6.598;2022-08-11T06:01:30;17.20;99.90
51853;DHT22;37894;53.172;6.598;2022-08-11T06:03:58;17.30;99.90
51853;DHT22;37894;53.172;6.598;2022-08-11T06:07:05;17.40;99.90
51853;DHT22;37894;53.172;6.598;2022-08-11T06:09:37;17.50;99.90
51853;DHT22;37894;53.172;6.598;2022-08-11T06:12:08;17.60;99.90
51853;DHT22;37894;53.172;6.598;2022-08-11T06:14:42;17.70;99.90
51853;DHT22;37894;53.172;6.598;2022-08-11T06:17:09;17.80;99.90
51853;DHT22;37894;53.172;6.598;2022-08-11T06:19:40;17.90;99.90
51853;DHT22;37894;53.172;6.598;2022-08-11T06:22:10;18.00;99.90
51853;DHT22;37894;53.172;6.598;2022-08-11T06:24:39;18.10;99.90
51853;DHT22;37894;53.172;6.598;2022-08-11T06:27:07;18.10;99.90
51853;DHT22;37894;53.172;6.598;2022-08-11T06:29:35;18.20;99.90
51853;DHT22;37894;53.172;6.598;2022-08-11T06:32:06;18.70;99.90
51853;DHT22;37894;53.172;6.598;2022-08-11T06:43:09;18.70;99.90
51853;DHT22;37894;53.172;6.598;2022-08-11T06:45:56;18.80;99.90
51853;DHT22;37894;53.172;6.598;2022-08-11T06:48:23;18.90;99.90
51853;DHT22;37894;53.172;6.598;2022-08-11T06:50:51;19.00;99.90
51853;DHT22;37894;53.172;6.598;2022-08-11T06:53:44;19.10;99.90
51853;DHT22;37894;53.172;6.598;2022-08-11T06:56:12;19.20;99.90
51853;DHT22;37894;53.172;6.598;2022-08-11T06:58:59;19.30;99.90
51853;DHT22;37894;53.172;6.598;2022-08-11T07:02:14;19.40;99.90
51853;DHT22;37894;53.172;6.598;2022-08-11T07:13:35;19.90;99.90
51853;DHT22;37894;53.172;6.598;2022-08-11T07:16:26;20.00;99.90
51853;DHT22;37894;53.172;6.598;2022-08-11T07:18:56;20.20;99.90
51853;DHT22;37894;53.172;6.598;2022-08-11T07:21:45;20.20;99.90
51853;DHT22;37894;53.172;6.598;2022-08-11T07:24:40;20.70;99.90
51853;DHT22;37894;53.172;6.598;2022-08-11T07:27:29;20.60;99.90
51853;DHT22;37894;53.172;6.598;2022-08-11T07:30:16;20.70;99.90
51853;DHT22;37894;53.172;6.598;2022-08-11T07:32:53;20.80;99.90
51853;DHT22;37894;53.172;6.598;2022-08-11T07:35:32;21.00;99.90
51853;DHT22;37894;53.172;6.598;2022-08-11T07:38:02;21.10;99.90
51853;DHT22;37894;53.172;6.598;2022-08-11T07:40:29;21.30;99.90
51853;DHT22;37894;53.172;6.598;2022-08-11T07:42:56;21.40;99.90
51853;DHT22;37894;53.172;6.598;2022-08-11T07:45:24;21.50;99.90
51853;DHT22;37894;53.172;6.598;2022-08-11T07:48:09;21.60;99.90
51853;DHT22;37894;53.172;6.598;2022-08-11T07:50:55;21.80;99.90
51853;DHT22;37894;53.172;6.598;2022-08-11T07:53:40;21.90;99.90
51853;DHT22;37894;53.172;6.598;2022-08-11T07:56:07;22.00;99.90
51853;DHT22;37894;53.172;6.598;2022-08-11T07:58:34;22.10;99.90
51853;DHT22;37894;53.172;6.598;2022-08-11T08:01:24;22.40;99.90
51853;DHT22;37894;53.172;6.598;2022-08-11T08:04:13;22.40;99.90
51853;DHT22;37894;53.172;6.598;2022-08-11T08:07:00;22.50;99.90
51853;DHT22;37894;53.172;6.598;2022-08-11T08:09:46;22.60;99.90
51853;DHT22;37894;53.172;6.598;2022-08-11T08:12:31;22.70;99.90
51853;DHT22;37894;53.172;6.598;2022-08-11T08:15:16;22.90;99.90
51853;DHT22;37894;53.172;6.598;2022-08-11T08:18:02;23.10;99.90
51853;DHT22;37894;53.172;6.598;2022-08-11T08:20:50;23.30;99.90
51853;DHT22;37894;53.172;6.598;2022-08-11T08:23:21;23.40;99.90
51853;DHT22;37894;53.172;6.598;2022-08-11T08:25:59;23.50;99.90
51853;DHT22;37894;53.172;6.598;2022-08-11T08:28:27;23.70;99.90
51853;DHT22;37894;53.172;6.598;2022-08-11T08:30:53;23.80;99.90
51853;DHT22;37894;53.172;6.598;2022-08-11T08:33:28;24.00;99.90
51853;DHT22;37894;53.172;6.598;2022-08-11T08:35:58;24.10;99.90
51853;DHT22;37894;53.172;6.598;2022-08-11T08:38:55;24.20;99.90
51853;DHT22;37894;53.172;6.598;2022-08-11T08:41:25;24.30;99.90
51853;DHT22;37894;53.172;6.598;2022-08-11T08:43:55;24.40;99.90
51853;DHT22;37894;53.172;6.598;2022-08-11T08:46:26;24.60;99.90
51853;DHT22;37894;53.172;6.598;2022-08-11T08:48:55;24.70;99.90
51853;DHT22;37894;53.172;6.598;2022-08-11T08:51:24;24.80;99.90
51853;DHT22;37894;53.172;6.598;2022-08-11T08:54:03;25.00;99.90
51853;DHT22;37894;53.172;6.598;2022-08-11T08:56:31;25.10;99.90
51853;DHT22;37894;53.172;6.598;2022-08-11T08:59:00;25.30;99.90
51853;DHT22;37894;53.172;6.598;2022-08-11T09:01:36;25.40;99.90
51853;DHT22;37894;53.172;6.598;2022-08-11T09:04:06;25.50;99.90
51853;DHT22;37894;53.172;6.598;2022-08-11T09:06:39;25.60;99.90
51853;DHT22;37894;53.172;6.598;2022-08-11T09:09:07;25.80;99.90
51853;DHT22;37894;53.172;6.598;2022-08-11T09:11:35;25.90;99.20
51853;DHT22;37894;53.172;6.598;2022-08-11T09:16:47;26.20;99.80
51853;DHT22;37894;53.172;6.598;2022-08-11T09:19:16;26.30;98.30
51853;DHT22;37894;53.172;6.598;2022-08-11T09:21:47;26.50;97.70
51853;DHT22;37894;53.172;6.598;2022-08-11T09:24:37;26.60;97.70
51853;DHT22;37894;53.172;6.598;2022-08-11T09:27:23;26.80;98.50
51853;DHT22;37894;53.172;6.598;2022-08-11T09:29:49;26.90;98.60
51853;DHT22;37894;53.172;6.598;2022-08-11T09:32:20;27.00;97.70
51853;DHT22;37894;53.172;6.598;2022-08-11T09:34:49;27.20;93.90
51853;DHT22;37894;53.172;6.598;2022-08-11T09:37:16;27.30;95.00
51853;DHT22;37894;53.172;6.598;2022-08-11T09:40:02;27.40;95.10
51853;DHT22;37894;53.172;6.598;2022-08-11T09:42:47;27.50;92.90
51853;DHT22;37894;53.172;6.598;2022-08-11T09:45:33;27.60;93.30
51853;DHT22;37894;53.172;6.598;2022-08-11T09:48:00;27.80;91.80
51853;DHT22;37894;53.172;6.598;2022-08-11T09:50:31;27.90;91.10
51853;DHT22;37894;53.172;6.598;2022-08-11T09:52:58;28.00;90.00
51853;DHT22;37894;53.172;6.598;2022-08-11T09:55:25;28.10;89.20
51853;DHT22;37894;53.172;6.598;2022-08-11T09:57:51;28.20;83.90
51853;DHT22;37894;53.172;6.598;2022-08-11T10:00:36;28.30;83.50
51853;DHT22;37894;53.172;6.598;2022-08-11T10:03:10;28.40;77.70
51853;DHT22;37894;53.172;6.598;2022-08-11T10:05:38;28.50;77.80
51853;DHT22;37894;53.172;6.598;2022-08-11T10:08:27;28.60;76.40
51853;DHT22;37894;53.172;6.598;2022-08-11T10:10:54;28.80;74.70
51853;DHT22;37894;53.172;6.598;2022-08-11T10:13:22;28.80;72.00
51853;DHT22;37894;53.172;6.598;2022-08-11T10:15:54;28.80;72.10
51853;DHT22;37894;53.172;6.598;2022-08-11T10:18:29;28.90;69.50
51853;DHT22;37894;53.172;6.598;2022-08-11T10:21:39;29.00;71.40
51853;DHT22;37894;53.172;6.598;2022-08-11T10:24:07;29.10;65.20
51853;DHT22;37894;53.172;6.598;2022-08-11T10:26:55;29.20;66.60
51853;DHT22;37894;53.172;6.598;2022-08-11T10:29:58;29.30;66.50
51853;DHT22;37894;53.172;6.598;2022-08-11T10:32:36;29.40;66.90
51853;DHT22;37894;53.172;6.598;2022-08-11T10:35:22;29.50;65.70
51853;DHT22;37894;53.172;6.598;2022-08-11T10:37:54;29.50;64.50
51853;DHT22;37894;53.172;6.598;2022-08-11T10:40:21;29.60;64.80
51853;DHT22;37894;53.172;6.598;2022-08-11T10:42:55;29.70;64.00
51853;DHT22;37894;53.172;6.598;2022-08-11T10:45:33;29.80;62.30
51853;DHT22;37894;53.172;6.598;2022-08-11T10:48:21;29.70;62.50
51853;DHT22;37894;53.172;6.598;2022-08-11T10:50:48;29.80;62.00
51853;DHT22;37894;53.172;6.598;2022-08-11T10:53:34;29.80;61.30
51853;DHT22;37894;53.172;6.598;2022-08-11T10:56:20;29.80;60.00
51853;DHT22;37894;53.172;6.598;2022-08-11T10:59:07;30.00;60.60
51853;DHT22;37894;53.172;6.598;2022-08-11T11:01:39;30.20;60.80
51853;DHT22;37894;53.172;6.598;2022-08-11T11:09:31;30.30;57.90
51853;DHT22;37894;53.172;6.598;2022-08-11T11:12:12;30.40;58.30
51853;DHT22;37894;53.172;6.598;2022-08-11T11:15:01;30.50;56.90
51853;DHT22;37894;53.172;6.598;2022-08-11T11:18:08;30.60;58.50
51853;DHT22;37894;53.172;6.598;2022-08-11T11:20:56;30.70;55.60
51853;DHT22;37894;53.172;6.598;2022-08-11T11:31:55;31.00;56.00
51853;DHT22;37894;53.172;6.598;2022-08-11T11:34:52;31.20;55.30
51853;DHT22;37894;53.172;6.598;2022-08-11T11:37:13;31.20;55.30
51853;DHT22;37894;53.172;6.598;2022-08-11T11:39:42;31.20;54.00
51853;DHT22;37894;53.172;6.598;2022-08-11T11:42:09;31.20;54.40
51853;DHT22;37894;53.172;6.598;2022-08-11T11:44:39;31.30;54.50
51853;DHT22;37894;53.172;6.598;2022-08-11T11:47:05;31.50;53.90
51853;DHT22;37894;53.172;6.598;2022-08-11T11:49:32;31.60;53.60
51853;DHT22;37894;53.172;6.598;2022-08-11T11:52:00;31.60;53.90
51853;DHT22;37894;53.172;6.598;2022-08-11T11:54:29;31.90;53.80
51853;DHT22;37894;53.172;6.598;2022-08-11T11:56:56;32.00;53.20
51853;DHT22;37894;53.172;6.598;2022-08-11T11:59:43;32.00;52.20
51853;DHT22;37894;53.172;6.598;2022-08-11T12:02:28;31.90;52.00
51853;DHT22;37894;53.172;6.598;2022-08-11T12:04:54;31.90;53.20
51853;DHT22;37894;53.172;6.598;2022-08-11T12:07:20;32.00;52.60
51853;DHT22;37894;53.172;6.598;2022-08-11T12:10:06;32.10;52.70
51853;DHT22;37894;53.172;6.598;2022-08-11T12:12:32;32.30;51.70
51853;DHT22;37894;53.172;6.598;2022-08-11T12:15:17;32.30;52.20
51853;DHT22;37894;53.172;6.598;2022-08-11T12:17:45;32.40;52.20
51853;DHT22;37894;53.172;6.598;2022-08-11T12:20:11;32.50;51.70
51853;DHT22;37894;53.172;6.598;2022-08-11T12:22:40;32.70;51.10
51853;DHT22;37894;53.172;6.598;2022-08-11T12:25:24;32.80;50.00
51853;DHT22;37894;53.172;6.598;2022-08-11T12:28:08;32.90;49.80
51853;DHT22;37894;53.172;6.598;2022-08-11T12:30:34;32.90;49.30
51853;DHT22;37894;53.172;6.598;2022-08-11T12:33:00;32.90;49.70
51853;DHT22;37894;53.172;6.598;2022-08-11T12:35:26;32.80;49.60
51853;DHT22;37894;53.172;6.598;2022-08-11T12:37:53;32.80;50.30
51853;DHT22;37894;53.172;6.598;2022-08-11T12:40:25;32.90;50.80
51853;DHT22;37894;53.172;6.598;2022-08-11T12:43:15;32.90;51.40
51853;DHT22;37894;53.172;6.598;2022-08-11T12:46:03;33.00;50.80
51853;DHT22;37894;53.172;6.598;2022-08-11T12:48:32;33.10;50.80
51853;DHT22;37894;53.172;6.598;2022-08-11T12:51:24;33.30;51.50
51853;DHT22;37894;53.172;6.598;2022-08-11T12:54:38;33.50;51.30
51853;DHT22;37894;53.172;6.598;2022-08-11T12:57:12;33.90;48.40
51853;DHT22;37894;53.172;6.598;2022-08-11T13:00:18;33.90;50.00
51853;DHT22;37894;53.172;6.598;2022-08-11T13:03:05;34.00;49.40
51853;DHT22;37894;53.172;6.598;2022-08-11T13:05:53;34.00;49.20
51853;DHT22;37894;53.172;6.598;2022-08-11T13:08:22;34.10;49.40
51853;DHT22;37894;53.172;6.598;2022-08-11T13:10:50;34.20;49.20
51853;DHT22;37894;53.172;6.598;2022-08-11T13:13:57;34.30;48.60
51853;DHT22;37894;53.172;6.598;2022-08-11T13:16:31;34.40;47.90
51853;DHT22;37894;53.172;6.598;2022-08-11T13:19:19;34.40;48.60
51853;DHT22;37894;53.172;6.598;2022-08-11T13:21:48;34.50;47.50
51853;DHT22;37894;53.172;6.598;2022-08-11T13:24:14;34.70;47.20
51853;DHT22;37894;53.172;6.598;2022-08-11T13:26:43;34.70;47.00
51853;DHT22;37894;53.172;6.598;2022-08-11T13:29:10;34.60;46.40
51853;DHT22;37894;53.172;6.598;2022-08-11T13:31:39;35.30;47.00
51853;DHT22;37894;53.172;6.598;2022-08-11T13:34:07;34.90;46.90
51853;DHT22;37894;53.172;6.598;2022-08-11T13:36:37;35.00;46.40
51853;DHT22;37894;53.172;6.598;2022-08-11T13:39:03;35.10;46.10
51853;DHT22;37894;53.172;6.598;2022-08-11T13:41:30;35.30;46.10
51853;DHT22;37894;53.172;6.598;2022-08-11T13:44:08;35.50;46.20
51853;DHT22;37894;53.172;6.598;2022-08-11T13:46:35;35.80;45.90
51853;DHT22;37894;53.172;6.598;2022-08-11T13:49:01;35.90;44.90
51853;DHT22;37894;53.172;6.598;2022-08-11T13:51:27;36.00;44.60
51853;DHT22;37894;53.172;6.598;2022-08-11T13:54:00;35.90;44.80
51853;DHT22;37894;53.172;6.598;2022-08-11T13:56:26;36.10;45.30
51853;DHT22;37894;53.172;6.598;2022-08-11T13:58:54;36.10;44.10
51853;DHT22;37894;53.172;6.598;2022-08-11T14:01:20;36.10;44.00
51853;DHT22;37894;53.172;6.598;2022-08-11T14:03:49;36.20;44.10
51853;DHT22;37894;53.172;6.598;2022-08-11T14:06:17;36.30;44.00
51853;DHT22;37894;53.172;6.598;2022-08-11T14:08:44;36.20;44.10
51853;DHT22;37894;53.172;6.598;2022-08-11T14:11:12;36.20;44.50
51853;DHT22;37894;53.172;6.598;2022-08-11T14:13:58;35.90;44.40
51853;DHT22;37894;53.172;6.598;2022-08-11T14:16:28;35.30;45.00
51853;DHT22;37894;53.172;6.598;2022-08-11T14:19:03;34.80;44.70
51853;DHT22;37894;53.172;6.598;2022-08-11T14:21:35;34.10;45.70
51853;DHT22;37894;53.172;6.598;2022-08-11T14:24:20;33.60;46.70
51853;DHT22;37894;53.172;6.598;2022-08-11T14:26:48;33.00;46.50
51853;DHT22;37894;53.172;6.598;2022-08-11T14:29:20;32.50;46.40
51853;DHT22;37894;53.172;6.598;2022-08-11T14:32:00;32.30;47.20
51853;DHT22;37894;53.172;6.598;2022-08-11T14:34:28;32.00;47.80
51853;DHT22;37894;53.172;6.598;2022-08-11T14:37:00;31.80;47.60
51853;DHT22;37894;53.172;6.598;2022-08-11T14:39:33;31.50;48.20
51853;DHT22;37894;53.172;6.598;2022-08-11T14:42:04;31.30;48.30
51853;DHT22;37894;53.172;6.598;2022-08-11T14:44:55;31.20;48.50
51853;DHT22;37894;53.172;6.598;2022-08-11T14:47:40;31.00;48.80
51853;DHT22;37894;53.172;6.598;2022-08-11T14:50:12;30.80;49.40
51853;DHT22;37894;53.172;6.598;2022-08-11T14:52:47;30.70;50.00
51853;DHT22;37894;53.172;6.598;2022-08-11T14:55:13;30.60;50.30
51853;DHT22;37894;53.172;6.598;2022-08-11T14:58:00;30.50;50.20
51853;DHT22;37894;53.172;6.598;2022-08-11T15:00:26;30.30;50.80
51853;DHT22;37894;53.172;6.598;2022-08-11T15:02:53;30.20;51.40
51853;DHT22;37894;53.172;6.598;2022-08-11T15:05:45;30.10;52.20
51853;DHT22;37894;53.172;6.598;2022-08-11T15:08:16;30.00;52.70
51853;DHT22;37894;53.172;6.598;2022-08-11T15:10:42;29.80;52.70
51853;DHT22;37894;53.172;6.598;2022-08-11T15:13:09;29.70;52.90
51853;DHT22;37894;53.172;6.598;2022-08-11T15:15:35;29.60;52.80
51853;DHT22;37894;53.172;6.598;2022-08-11T15:18:21;29.50;53.20
51853;DHT22;37894;53.172;6.598;2022-08-11T15:20:51;29.50;53.40
51853;DHT22;37894;53.172;6.598;2022-08-11T15:23:49;29.40;53.50
51853;DHT22;37894;53.172;6.598;2022-08-11T15:26:38;29.30;53.30
51853;DHT22;37894;53.172;6.598;2022-08-11T15:29:29;29.20;53.80
51853;DHT22;37894;53.172;6.598;2022-08-11T15:32:16;29.10;54.10
51853;DHT22;37894;53.172;6.598;2022-08-11T15:35:02;29.00;54.00
51853;DHT22;37894;53.172;6.598;2022-08-11T15:37:52;29.00;54.40
51853;DHT22;37894;53.172;6.598;2022-08-11T15:40:26;29.00;54.80
51853;DHT22;37894;53.172;6.598;2022-08-11T15:43:38;28.90;55.10
51853;DHT22;37894;53.172;6.598;2022-08-11T15:46:33;28.80;56.40
51853;DHT22;37894;53.172;6.598;2022-08-11T15:49:14;28.80;55.60
51853;DHT22;37894;53.172;6.598;2022-08-11T15:51:47;28.70;56.30
51853;DHT22;37894;53.172;6.598;2022-08-11T15:54:17;28.70;56.10
51853;DHT22;37894;53.172;6.598;2022-08-11T15:56:47;28.70;56.30
51853;DHT22;37894;53.172;6.598;2022-08-11T15:59:15;28.60;57.00
51853;DHT22;37894;53.172;6.598;2022-08-11T16:02:01;28.50;57.10
51853;DHT22;37894;53.172;6.598;2022-08-11T16:04:37;28.50;57.00
51853;DHT22;37894;53.172;6.598;2022-08-11T16:07:09;28.40;57.20
51853;DHT22;37894;53.172;6.598;2022-08-11T16:09:46;28.40;57.30
51853;DHT22;37894;53.172;6.598;2022-08-11T16:12:20;28.30;57.80
51853;DHT22;37894;53.172;6.598;2022-08-11T16:14:50;28.20;57.70
51853;DHT22;37894;53.172;6.598;2022-08-11T16:18:06;28.20;58.50
51853;DHT22;37894;53.172;6.598;2022-08-11T16:20:32;28.10;58.70
51853;DHT22;37894;53.172;6.598;2022-08-11T16:23:03;28.00;58.40
51853;DHT22;37894;53.172;6.598;2022-08-11T16:25:33;28.00;58.70
51853;DHT22;37894;53.172;6.598;2022-08-11T16:28:02;27.90;59.00
51853;DHT22;37894;53.172;6.598;2022-08-11T16:30:39;27.80;59.10
51853;DHT22;37894;53.172;6.598;2022-08-11T16:33:06;27.80;59.30
51853;DHT22;37894;53.172;6.598;2022-08-11T16:35:35;27.70;59.90
51853;DHT22;37894;53.172;6.598;2022-08-11T16:38:23;27.70;59.90
51853;DHT22;37894;53.172;6.598;2022-08-11T16:41:02;27.60;59.80
51853;DHT22;37894;53.172;6.598;2022-08-11T16:43:29;27.60;60.30
51853;DHT22;37894;53.172;6.598;2022-08-11T16:46:17;27.50;60.50
51853;DHT22;37894;53.172;6.598;2022-08-11T16:49:06;27.40;60.80
51853;DHT22;37894;53.172;6.598;2022-08-11T16:51:32;27.40;61.20
51853;DHT22;37894;53.172;6.598;2022-08-11T16:53:59;27.30;61.40
51853;DHT22;37894;53.172;6.598;2022-08-11T16:56:37;27.30;61.70
51853;DHT22;37894;53.172;6.598;2022-08-11T16:59:14;27.20;62.10
51853;DHT22;37894;53.172;6.598;2022-08-11T17:07:24;27.10;63.20
51853;DHT22;37894;53.172;6.598;2022-08-11T17:10:26;27.00;63.60
51853;DHT22;37894;53.172;6.598;2022-08-11T17:13:13;26.90;64.50
51853;DHT22;37894;53.172;6.598;2022-08-11T17:15:47;26.90;64.50
51853;DHT22;37894;53.172;6.598;2022-08-11T17:19:17;26.80;64.90
51853;DHT22;37894;53.172;6.598;2022-08-11T17:21:40;26.80;65.20
51853;DHT22;37894;53.172;6.598;2022-08-11T17:24:27;26.70;65.90
51853;DHT22;37894;53.172;6.598;2022-08-11T17:26:56;26.70;65.20
51853;DHT22;37894;53.172;6.598;2022-08-11T17:29:52;26.60;65.60
51853;DHT22;37894;53.172;6.598;2022-08-11T17:32:23;26.60;66.20
51853;DHT22;37894;53.172;6.598;2022-08-11T17:35:11;26.50;66.50
51853;DHT22;37894;53.172;6.598;2022-08-11T17:38:04;26.50;67.10
51853;DHT22;37894;53.172;6.598;2022-08-11T17:40:36;26.40;67.60
51853;DHT22;37894;53.172;6.598;2022-08-11T17:43:06;26.30;68.10
51853;DHT22;37894;53.172;6.598;2022-08-11T17:46:05;26.30;68.50
51853;DHT22;37894;53.172;6.598;2022-08-11T17:48:49;26.30;68.60
51853;DHT22;37894;53.172;6.598;2022-08-11T17:51:18;26.20;69.10
51853;DHT22;37894;53.172;6.598;2022-08-11T17:54:05;26.10;69.80
51853;DHT22;37894;53.172;6.598;2022-08-11T17:56:51;26.10;70.10
51853;DHT22;37894;53.172;6.598;2022-08-11T17:59:36;26.10;71.00
51853;DHT22;37894;53.172;6.598;2022-08-11T18:02:36;26.00;71.50
51853;DHT22;37894;53.172;6.598;2022-08-11T18:05:24;25.90;71.80
51853;DHT22;37894;53.172;6.598;2022-08-11T18:07:53;25.90;71.60
51853;DHT22;37894;53.172;6.598;2022-08-11T18:10:39;25.80;71.90
51853;DHT22;37894;53.172;6.598;2022-08-11T18:13:26;25.80;72.70
51853;DHT22;37894;53.172;6.598;2022-08-11T18:16:12;25.70;72.20
51853;DHT22;37894;53.172;6.598;2022-08-11T18:18:56;25.60;72.50
51853;DHT22;37894;53.172;6.598;2022-08-11T18:21:44;25.60;72.60
51853;DHT22;37894;53.172;6.598;2022-08-11T18:24:32;25.50;72.80
51853;DHT22;37894;53.172;6.598;2022-08-11T18:27:18;25.50;73.30
51853;DHT22;37894;53.172;6.598;2022-08-11T18:30:03;25.40;73.60
51853;DHT22;37894;53.172;6.598;2022-08-11T18:32:50;25.30;74.30
51853;DHT22;37894;53.172;6.598;2022-08-11T18:35:35;25.30;75.20
51853;DHT22;37894;53.172;6.598;2022-08-11T18:38:22;25.20;76.40
51853;DHT22;37894;53.172;6.598;2022-08-11T18:41:10;25.10;77.30
51853;DHT22;37894;53.172;6.598;2022-08-11T18:43:59;25.00;79.10
51853;DHT22;37894;53.172;6.598;2022-08-11T18:46:49;25.00;79.30
51853;DHT22;37894;53.172;6.598;2022-08-11T18:49:38;24.90;80.10
51853;DHT22;37894;53.172;6.598;2022-08-11T18:52:24;24.80;81.50
51853;DHT22;37894;53.172;6.598;2022-08-11T18:55:13;24.80;82.10
51853;DHT22;37894;53.172;6.598;2022-08-11T18:58:04;24.70;82.70
51853;DHT22;37894;53.172;6.598;2022-08-11T19:00:50;24.60;83.70
51853;DHT22;37894;53.172;6.598;2022-08-11T19:03:38;24.50;85.00
51853;DHT22;37894;53.172;6.598;2022-08-11T19:06:23;24.40;86.60
51853;DHT22;37894;53.172;6.598;2022-08-11T19:09:11;24.30;87.10
51853;DHT22;37894;53.172;6.598;2022-08-11T19:11:58;24.20;88.20
51853;DHT22;37894;53.172;6.598;2022-08-11T19:14:44;24.20;90.00
51853;DHT22;37894;53.172;6.598;2022-08-11T19:17:30;24.10;90.60
51853;DHT22;37894;53.172;6.598;2022-08-11T19:20:18;24.00;91.20
51853;DHT22;37894;53.172;6.598;2022-08-11T19:23:04;23.90;91.80
51853;DHT22;37894;53.172;6.598;2022-08-11T19:25:49;23.80;92.60
51853;DHT22;37894;53.172;6.598;2022-08-11T19:28:34;23.70;93.50
51853;DHT22;37894;53.172;6.598;2022-08-11T19:31:20;23.60;93.90
51853;DHT22;37894;53.172;6.598;2022-08-11T19:34:04;23.50;94.90
51853;DHT22;37894;53.172;6.598;2022-08-11T19:36:51;23.40;95.50
51853;DHT22;37894;53.172;6.598;2022-08-11T19:39:36;23.30;96.30
51853;DHT22;37894;53.172;6.598;2022-08-11T19:42:22;23.20;96.80
51853;DHT22;37894;53.172;6.598;2022-08-11T19:45:07;23.20;97.20
51853;DHT22;37894;53.172;6.598;2022-08-11T19:47:51;23.10;97.80
51853;DHT22;37894;53.172;6.598;2022-08-11T19:50:38;23.00;98.30
51853;DHT22;37894;53.172;6.598;2022-08-11T19:53:23;22.90;98.60
51853;DHT22;37894;53.172;6.598;2022-08-11T19:56:07;22.90;99.10
51853;DHT22;37894;53.172;6.598;2022-08-11T19:58:52;22.80;99.60
51853;DHT22;37894;53.172;6.598;2022-08-11T20:01:39;22.70;99.90
51853;DHT22;37894;53.172;6.598;2022-08-11T20:04:23;22.70;99.90
51853;DHT22;37894;53.172;6.598;2022-08-11T20:07:07;22.60;99.90
51853;DHT22;37894;53.172;6.598;2022-08-11T20:09:53;22.50;99.90
51853;DHT22;37894;53.172;6.598;2022-08-11T20:12:38;22.40;99.90
51853;DHT22;37894;53.172;6.598;2022-08-11T20:15:24;22.30;99.90